createdAt,value
2019-03-12T00:00:53.147Z,96280.16
2019-03-12T00:03:19.322Z,96287.41
2019-03-12T00:05:45.631Z,96299.13
2019-03-12T00:08:11.836Z,96300.70
2019-03-12T00:10:38.068Z,96303.39
2019-03-12T00:13:04.267Z,96300.50
2019-03-12T00:15:31.484Z,96309.26
2019-03-12T00:17:58.698Z,96309.45
2019-03-12T00:20:24.893Z,96319.27
2019-03-12T00:22:51.062Z,96327.84
2019-03-12T00:25:17.373Z,96330.80
2019-03-12T00:27:43.601Z,96332.39
2019-03-12T00:30:10.094Z,96341.05
2019-03-12T00:32:36.360Z,96340.20
2019-03-12T00:35:04.632Z,96342.80
2019-03-12T00:37:30.961Z,96348.09
2019-03-12T00:39:57.052Z,96346.08
2019-03-12T00:42:23.213Z,96354.79
2019-03-12T00:44:49.412Z,96352.19
2019-03-12T00:47:15.514Z,96361.50
2019-03-12T00:49:41.677Z,96352.00
2019-03-12T00:52:07.885Z,96358.41
2019-03-12T00:54:34.018Z,96361.41
2019-03-12T00:57:01.344Z,96370.98
2019-03-12T00:59:27.461Z,96367.71
2019-03-12T01:01:53.691Z,96376.37
2019-03-12T01:04:19.850Z,96377.86
2019-03-12T01:06:46.159Z,96384.36
2019-03-12T01:09:12.266Z,96385.48
2019-03-12T01:11:38.504Z,96387.53
2019-03-12T01:14:04.770Z,96399.34
2019-03-12T01:16:30.960Z,96401.85
2019-03-12T01:18:57.211Z,96406.03
2019-03-12T01:21:23.425Z,96406.66
2019-03-12T01:23:49.579Z,96402.85
2019-03-12T01:26:15.814Z,96405.00
2019-03-12T01:28:41.918Z,96406.20
2019-03-12T01:31:08.136Z,96412.63
2019-03-12T01:33:34.250Z,96418.37
2019-03-12T01:36:00.465Z,96415.77
2019-03-12T01:38:26.652Z,96412.90
2019-03-12T01:40:52.884Z,96425.37
2019-03-12T01:43:19.044Z,96431.03
2019-03-12T01:45:45.262Z,96433.72
2019-03-12T01:48:12.462Z,96440.69
2019-03-12T01:50:38.673Z,96438.56
2019-03-12T01:53:04.778Z,96444.22
2019-03-12T01:55:31.027Z,96441.17
2019-03-12T01:57:57.152Z,96443.02
2019-03-12T02:00:23.459Z,96448.13
2019-03-12T02:02:49.651Z,96447.28
2019-03-12T02:05:16.173Z,96446.91
2019-03-12T02:07:42.318Z,96455.09
2019-03-12T02:10:10.448Z,96455.94
2019-03-12T02:12:36.708Z,96447.28
2019-03-12T02:15:12.600Z,96451.09
2019-03-12T02:17:38.800Z,96460.11
2019-03-12T02:20:08.029Z,96469.22
2019-03-12T02:22:34.148Z,96473.22
2019-03-12T02:25:00.425Z,96478.33
2019-03-12T02:27:26.488Z,96486.05
2019-03-12T02:29:52.698Z,96480.84
2019-03-12T02:32:18.847Z,96481.78
2019-03-12T02:34:45.015Z,96489.59
2019-03-12T02:37:11.154Z,96491.26
2019-03-12T02:39:37.312Z,96497.77
2019-03-12T02:42:03.665Z,96493.50
2019-03-12T02:44:29.978Z,96493.86
2019-03-12T02:46:56.132Z,96493.05
2019-03-12T02:49:22.281Z,96497.67
2019-03-12T02:51:48.386Z,96500.77
2019-03-12T02:54:14.682Z,96502.43
2019-03-12T02:56:41.850Z,96503.91
2019-03-12T02:59:09.007Z,96501.41
2019-03-12T03:01:35.173Z,96501.70
2019-03-12T03:04:01.416Z,96510.73
2019-03-12T03:06:35.877Z,96517.60
2019-03-12T03:09:02.575Z,96510.42
2019-03-12T03:11:30.670Z,96513.12
2019-03-12T03:13:56.783Z,96518.63
2019-03-12T03:16:24.335Z,96521.96
2019-03-12T03:18:50.759Z,96516.39
2019-03-12T03:21:16.948Z,96524.20
2019-03-12T03:23:43.168Z,96521.05
2019-03-12T03:26:09.331Z,96527.56
2019-03-12T03:28:35.619Z,96536.85
2019-03-12T03:31:03.150Z,96522.05
2019-03-12T03:33:29.254Z,96529.05
2019-03-12T03:35:55.462Z,96530.16
2019-03-12T03:38:22.398Z,96533.59
2019-03-12T03:40:48.656Z,96540.27
2019-03-12T03:43:14.796Z,96532.95
2019-03-12T03:45:41.011Z,96535.16
2019-03-12T03:48:07.163Z,96538.61
2019-03-12T03:50:33.410Z,96536.85
2019-03-12T03:52:59.673Z,96531.65
2019-03-12T03:55:25.946Z,96540.19
2019-03-12T03:57:52.617Z,96536.85
2019-03-12T04:00:21.365Z,96535.92
2019-03-12T04:02:47.549Z,96545.03
2019-03-12T04:05:13.982Z,96543.91
2019-03-12T04:07:40.104Z,96544.75
2019-03-12T04:10:11.072Z,96551.62
2019-03-12T04:12:37.271Z,96552.47
2019-03-12T04:15:08.512Z,96550.59
2019-03-12T04:17:35.119Z,96551.45
2019-03-12T04:20:01.972Z,96552.75
2019-03-12T04:22:28.129Z,96551.17
2019-03-12T04:24:54.654Z,96551.53
2019-03-12T04:27:20.817Z,96549.88
2019-03-12T04:29:47.144Z,96546.42
2019-03-12T04:32:13.351Z,96536.85
2019-03-12T04:34:39.769Z,96538.43
2019-03-12T04:37:06.051Z,96543.55
2019-03-12T04:39:32.454Z,96543.55
2019-03-12T04:41:58.686Z,96546.69
2019-03-12T04:44:24.763Z,96543.18
2019-03-12T04:46:51.062Z,96549.61
2019-03-12T04:49:17.238Z,96548.39
2019-03-12T04:51:43.423Z,96553.96
2019-03-12T04:54:09.585Z,96547.91
2019-03-12T04:56:35.725Z,96545.22
2019-03-12T04:59:02.062Z,96551.36
2019-03-12T05:01:28.239Z,96555.27
2019-03-12T05:03:54.392Z,96560.11
2019-03-12T05:06:20.853Z,96570.52
2019-03-12T05:08:47.009Z,96572.73
2019-03-12T05:11:13.174Z,96569.95
2019-03-12T05:13:40.434Z,96570.88
2019-03-12T05:16:06.641Z,96571.25
2019-03-12T05:18:32.808Z,96568.28
2019-03-12T05:20:58.963Z,96573.13
2019-03-12T05:23:25.354Z,96571.73
2019-03-12T05:25:51.592Z,96566.04
2019-03-12T05:28:17.691Z,96573.77
2019-03-12T05:30:43.985Z,96577.13
2019-03-12T05:33:10.183Z,96573.22
2019-03-12T05:35:36.391Z,96583.55
2019-03-12T05:38:02.586Z,96584.09
2019-03-12T05:40:28.740Z,96587.54
2019-03-12T05:42:54.952Z,96583.64
2019-03-12T05:45:21.049Z,96585.11
2019-03-12T05:47:47.241Z,96582.59
2019-03-12T05:50:20.448Z,96584.84
2019-03-12T05:52:48.952Z,96581.58
2019-03-12T05:55:15.249Z,96580.75
2019-03-12T05:57:41.658Z,96578.52
2019-03-12T06:00:16.752Z,96579.28
2019-03-12T06:02:42.950Z,96583.55
2019-03-12T06:05:09.297Z,96582.52
2019-03-12T06:07:35.490Z,96585.04
2019-03-12T06:10:03.628Z,96591.55
2019-03-12T06:12:29.853Z,96590.25
2019-03-12T06:14:55.960Z,96595.28
2019-03-12T06:17:22.145Z,96596.13
2019-03-12T06:19:48.235Z,96592.30
2019-03-12T06:22:14.453Z,96593.52
2019-03-12T06:24:40.537Z,96584.77
2019-03-12T06:27:06.720Z,96589.98
2019-03-12T06:29:32.824Z,96587.86
2019-03-12T06:32:06.972Z,96592.31
2019-03-12T06:34:35.011Z,96595.38
2019-03-12T06:37:12.129Z,96587.47
2019-03-12T06:39:45.921Z,96591.29
2019-03-12T06:42:14.042Z,96591.38
2019-03-12T06:44:58.841Z,96593.53
2019-03-12T06:47:29.742Z,96593.44
2019-03-12T06:50:00.486Z,96586.48
2019-03-12T06:52:43.638Z,96582.84
2019-03-12T06:55:11.644Z,96580.45
2019-03-12T06:58:18.435Z,96580.06
2019-03-12T07:01:04.344Z,96582.21
2019-03-12T07:03:48.872Z,96585.67
2019-03-12T07:06:20.952Z,96575.61
2019-03-12T07:09:04.112Z,96577.19
2019-03-12T07:11:42.316Z,96575.82
2019-03-12T07:14:13.556Z,96578.24
2019-03-12T07:16:44.388Z,96576.48
2019-03-12T07:19:12.463Z,96575.81
2019-03-12T07:21:40.548Z,96570.80
2019-03-12T07:24:08.674Z,96579.16
2019-03-12T07:26:49.031Z,96575.46
2019-03-12T07:29:32.536Z,96567.64
2019-03-12T07:32:15.901Z,96574.88
2019-03-12T07:35:00.924Z,96563.14
2019-03-12T07:37:28.969Z,96559.53
2019-03-12T07:40:05.824Z,96561.45
2019-03-12T07:42:51.083Z,96561.00
2019-03-12T07:45:19.154Z,96562.86
2019-03-12T07:47:56.070Z,96568.72
2019-03-12T07:50:24.252Z,96569.84
2019-03-12T07:53:10.475Z,96568.34
2019-03-12T07:55:50.573Z,96573.99
2019-03-12T07:58:35.596Z,96574.75
2019-03-12T08:01:03.886Z,96578.48
2019-03-12T08:03:48.320Z,96577.00
2019-03-12T08:06:28.289Z,96571.29
2019-03-12T08:08:59.057Z,96576.02
2019-03-12T08:11:27.191Z,96572.86
2019-03-12T08:13:55.314Z,96569.59
2019-03-12T08:16:23.547Z,96576.68
2019-03-12T08:18:52.647Z,96572.48
2019-03-12T08:21:32.851Z,96566.41
2019-03-12T08:24:07.001Z,96565.33
2019-03-12T08:26:35.056Z,96565.23
2019-03-12T08:29:05.862Z,96563.17
2019-03-12T08:31:51.882Z,96560.92
2019-03-12T08:34:31.937Z,96561.27
2019-03-12T08:37:06.057Z,96552.30
2019-03-12T08:39:36.953Z,96544.16
2019-03-12T08:42:05.020Z,96552.05
2019-03-12T08:44:33.071Z,96553.34
2019-03-12T08:47:14.433Z,96549.94
2019-03-12T08:49:45.475Z,96554.41
2019-03-12T08:52:13.501Z,96551.79
2019-03-12T08:54:58.281Z,96544.85
2019-03-12T08:57:27.896Z,96540.83
2019-03-12T08:59:56.631Z,96536.70
2019-03-12T09:02:34.174Z,96539.74
2019-03-12T09:05:08.847Z,96536.56
2019-03-12T09:07:40.111Z,96531.91
2019-03-12T09:10:26.641Z,96532.48
2019-03-12T09:12:55.418Z,96530.22
2019-03-12T09:15:40.873Z,96529.86
2019-03-12T09:18:24.892Z,96524.42
2019-03-12T09:20:56.444Z,96530.05
2019-03-12T09:23:37.147Z,96521.60
2019-03-12T09:26:20.570Z,96523.20
2019-03-12T09:28:52.111Z,96522.48
2019-03-12T09:31:29.771Z,96517.74
2019-03-12T09:34:02.339Z,96519.87
2019-03-12T09:36:31.005Z,96521.16
2019-03-12T09:39:02.596Z,96512.95
2019-03-12T09:41:48.071Z,96520.52
2019-03-12T09:44:33.245Z,96509.16
2019-03-12T09:47:04.659Z,96498.50
2019-03-12T09:49:39.337Z,96492.12
2019-03-12T09:52:22.797Z,96495.69
2019-03-12T09:54:51.375Z,96490.83
2019-03-12T09:57:21.943Z,96490.59
2019-03-12T09:59:50.566Z,96474.81
2019-03-12T10:02:25.044Z,96479.24
2019-03-12T10:05:02.777Z,96476.62
2019-03-12T10:07:48.630Z,96478.40
2019-03-12T10:10:22.574Z,96471.31
2019-03-12T10:12:50.679Z,96479.25
2019-03-12T10:15:36.650Z,96466.61
2019-03-12T10:18:05.041Z,96466.22
2019-03-12T10:20:33.332Z,96455.13
2019-03-12T10:23:04.980Z,96453.41
2019-03-12T10:25:36.527Z,96446.71
2019-03-12T10:28:17.087Z,96446.83
2019-03-12T10:30:47.849Z,96439.89
2019-03-12T10:33:16.044Z,96433.39
2019-03-12T10:35:49.861Z,96432.94
2019-03-12T10:38:55.230Z,96431.92
2019-03-12T10:41:32.371Z,96423.71
2019-03-12T10:44:00.485Z,96416.62
2019-03-12T10:46:31.273Z,96425.09
2019-03-12T10:48:57.585Z,96423.38
2019-03-12T10:51:23.786Z,96410.77
2019-03-12T10:53:49.899Z,96407.96
2019-03-12T10:56:16.230Z,96402.22
2019-03-12T10:58:42.347Z,96403.59
2019-03-12T11:01:08.783Z,96406.94
2019-03-12T11:03:34.977Z,96401.59
2019-03-12T11:06:01.281Z,96399.86
2019-03-12T11:08:27.422Z,96406.09
2019-03-12T11:10:53.635Z,96396.63
2019-03-12T11:13:19.725Z,96394.93
2019-03-12T11:15:46.152Z,96386.63
2019-03-12T11:18:12.323Z,96376.09
2019-03-12T11:20:38.498Z,96377.14
2019-03-12T11:23:04.703Z,96370.13
2019-03-12T11:25:30.934Z,96362.23
2019-03-12T11:27:59.533Z,96362.99
2019-03-12T11:30:25.653Z,96364.47
2019-03-12T11:32:51.861Z,96351.77
2019-03-12T11:35:17.973Z,96338.66
2019-03-12T11:37:44.254Z,96342.55
2019-03-12T11:40:25.699Z,96346.36
2019-03-12T11:42:53.407Z,96332.17
2019-03-12T11:45:22.214Z,96322.53
2019-03-12T11:47:48.233Z,96323.59
2019-03-12T11:50:17.159Z,96323.55
2019-03-12T11:52:52.720Z,96307.09
2019-03-12T11:55:13.273Z,96312.70
2019-03-12T11:57:39.529Z,96305.09
2019-03-12T12:00:09.751Z,96291.67
2019-03-12T12:02:36.168Z,96289.52
2019-03-12T12:05:02.850Z,96284.80
2019-03-12T12:07:30.113Z,96278.17
2019-03-12T12:09:56.365Z,96279.75
2019-03-12T12:12:22.538Z,96276.45
2019-03-12T12:14:48.723Z,96273.63
2019-03-12T12:17:14.892Z,96271.52
2019-03-12T12:19:41.117Z,96268.42
2019-03-12T12:22:07.282Z,96256.34
2019-03-12T12:24:33.512Z,96242.55
2019-03-12T12:26:59.749Z,96233.80
2019-03-12T12:29:25.962Z,96229.50
2019-03-12T12:31:52.184Z,96229.47
2019-03-12T12:34:18.403Z,96233.11
2019-03-12T12:36:45.642Z,96223.58
2019-03-12T12:39:11.926Z,96217.67
2019-03-12T12:41:38.268Z,96212.63
2019-03-12T12:44:04.434Z,96211.20
2019-03-12T12:46:30.743Z,96190.81
2019-03-12T12:48:56.950Z,96183.34
2019-03-12T12:51:23.037Z,96177.45
2019-03-12T12:53:49.252Z,96178.34
2019-03-12T12:56:15.463Z,96167.83
2019-03-12T12:58:42.023Z,96157.77
2019-03-12T13:01:08.214Z,96123.66
2019-03-12T13:03:34.508Z,96123.66
2019-03-12T13:06:00.610Z,96143.16
2019-03-12T13:08:26.801Z,96129.16
2019-03-12T13:10:53.062Z,96130.97
2019-03-12T13:13:19.363Z,96118.36
2019-03-12T13:15:45.737Z,96121.19
2019-03-12T13:18:11.960Z,96122.80
2019-03-12T13:20:38.749Z,96122.91
2019-03-12T13:23:05.419Z,96107.97
2019-03-12T13:25:32.053Z,96106.16
2019-03-12T13:27:58.289Z,96105.00
2019-03-12T13:30:25.989Z,96101.20
2019-03-12T13:32:52.526Z,96089.93
2019-03-12T13:35:19.726Z,96088.86
2019-03-12T13:37:49.423Z,96077.89
2019-03-12T13:40:17.695Z,96075.63
2019-03-12T13:42:44.039Z,96070.26
2019-03-12T13:45:18.593Z,96071.70
2019-03-12T13:47:45.405Z,96067.46
2019-03-12T13:50:12.844Z,96056.34
2019-03-12T13:52:39.827Z,96058.86
2019-03-12T13:55:11.518Z,96046.05
2019-03-12T13:57:38.539Z,96040.00
2019-03-12T14:00:11.302Z,96041.25
2019-03-12T14:02:38.215Z,96030.85
2019-03-12T14:05:07.824Z,96031.25
2019-03-12T14:07:34.456Z,96018.23
2019-03-12T14:10:00.807Z,96017.23
2019-03-12T14:12:27.421Z,96008.65
2019-03-12T14:14:53.591Z,96008.41
2019-03-12T14:17:19.927Z,96006.45
2019-03-12T14:19:46.158Z,96002.45
2019-03-12T14:22:12.315Z,95988.89
2019-03-12T14:24:38.492Z,95983.55
2019-03-12T14:27:04.827Z,95984.87
2019-03-12T14:29:30.989Z,95981.94
2019-03-12T14:31:57.134Z,95976.83
2019-03-12T14:34:23.347Z,95970.92
2019-03-12T14:36:49.590Z,95983.34
2019-03-12T14:39:16.913Z,95966.14
2019-03-12T14:41:43.302Z,95965.78
2019-03-12T14:44:09.539Z,95970.22
2019-03-12T14:46:36.045Z,95961.48
2019-03-12T14:49:02.928Z,95957.03
2019-03-12T14:51:33.519Z,95946.95
2019-03-12T14:54:02.687Z,95943.66
2019-03-12T14:56:30.078Z,95921.67
2019-03-12T14:58:56.978Z,95919.19
2019-03-12T15:01:23.741Z,95920.16
2019-03-12T15:03:50.239Z,95918.19
2019-03-12T15:06:16.555Z,95912.75
2019-03-12T15:08:42.835Z,95903.97
2019-03-12T15:11:09.148Z,95900.00
2019-03-12T15:13:36.388Z,95891.09
2019-03-12T15:16:02.530Z,95884.95
2019-03-12T15:18:28.725Z,95877.20
2019-03-12T15:20:54.926Z,95877.97
2019-03-12T15:23:21.089Z,95869.02
2019-03-12T15:25:47.644Z,95862.02
2019-03-12T15:28:14.675Z,95864.92
2019-03-12T15:30:41.626Z,95867.00
2019-03-12T15:33:07.833Z,95857.39
2019-03-12T15:35:34.341Z,95857.09
2019-03-12T15:38:00.806Z,95846.89
2019-03-12T15:40:27.305Z,95839.14
2019-03-12T15:42:54.218Z,95842.48
2019-03-12T15:45:20.890Z,95835.59
2019-03-12T15:47:47.340Z,95830.51
2019-03-12T15:50:18.794Z,95825.19
2019-03-12T15:52:44.297Z,95826.63
2019-03-12T15:55:11.611Z,95813.34
2019-03-12T15:57:38.080Z,95809.50
2019-03-12T16:00:16.067Z,95806.88
2019-03-12T16:02:42.393Z,95806.55
2019-03-12T16:05:08.813Z,95803.45
2019-03-12T16:07:35.080Z,95800.63
2019-03-12T16:10:01.628Z,95790.15
2019-03-12T16:12:27.987Z,95782.37
2019-03-12T16:14:54.156Z,95781.34
2019-03-12T16:17:20.422Z,95768.33
2019-03-12T16:19:46.605Z,95769.53
2019-03-12T16:22:12.786Z,95750.52
2019-03-12T16:24:39.017Z,95746.91
2019-03-12T16:27:05.185Z,95742.01
2019-03-12T16:29:31.349Z,95729.73
2019-03-12T16:31:57.485Z,95716.61
2019-03-12T16:34:23.832Z,95711.88
2019-03-12T16:36:50.040Z,95711.13
2019-03-12T16:39:16.399Z,95702.98
2019-03-12T16:41:42.528Z,95704.86
2019-03-12T16:44:08.783Z,95692.25
2019-03-12T16:46:36.297Z,95685.64
2019-03-12T16:49:02.830Z,95671.92
2019-03-12T16:51:29.146Z,95666.95
2019-03-12T16:53:55.411Z,95663.44
2019-03-12T16:56:21.613Z,95657.24
2019-03-12T16:58:47.815Z,95646.33
2019-03-12T17:01:15.148Z,95638.22
2019-03-12T17:03:42.275Z,95635.17
2019-03-12T17:06:08.427Z,95626.42
2019-03-12T17:08:34.739Z,95630.09
2019-03-12T17:11:02.714Z,95626.63
2019-03-12T17:13:29.111Z,95613.75
2019-03-12T17:15:55.330Z,95605.94
2019-03-12T17:18:21.669Z,95610.37
2019-03-12T17:20:47.789Z,95598.22
2019-03-12T17:23:14.080Z,95589.19
2019-03-12T17:25:41.322Z,95580.98
2019-03-12T17:28:08.623Z,95579.25
2019-03-12T17:30:34.883Z,95569.89
2019-03-12T17:33:01.162Z,95564.31
2019-03-12T17:35:35.164Z,95564.59
2019-03-12T17:38:01.912Z,95564.73
2019-03-12T17:40:28.409Z,95550.09
2019-03-12T17:42:54.720Z,95557.05
2019-03-12T17:45:21.094Z,95544.19
2019-03-12T17:47:47.264Z,95541.84
2019-03-12T17:50:13.668Z,95531.92
2019-03-12T17:52:39.876Z,95526.40
2019-03-12T17:55:09.401Z,95531.16
2019-03-12T17:57:35.537Z,95527.57
2019-03-12T18:00:04.533Z,95518.08
2019-03-12T18:02:41.989Z,95519.72
2019-03-12T18:04:59.327Z,95513.51
2019-03-12T18:07:25.542Z,95503.87
2019-03-12T18:09:51.665Z,95498.16
2019-03-12T18:12:17.986Z,95480.03
2019-03-12T18:14:44.231Z,95473.48
2019-03-12T18:17:10.377Z,95455.22
2019-03-12T18:19:37.146Z,95464.38
2019-03-12T18:22:03.292Z,95451.79
2019-03-12T18:24:31.114Z,95450.12
2019-03-12T18:26:57.521Z,95440.34
2019-03-12T18:29:23.869Z,95436.27
2019-03-12T18:31:50.100Z,95432.48
2019-03-12T18:34:16.350Z,95420.01
2019-03-12T18:36:42.586Z,95412.84
2019-03-12T18:39:09.244Z,95408.92
2019-03-12T18:41:35.609Z,95398.45
2019-03-12T18:44:01.965Z,95404.72
2019-03-12T18:46:28.262Z,95397.33
2019-03-12T18:48:54.473Z,95386.86
2019-03-12T18:51:20.661Z,95379.42
2019-03-12T18:53:46.887Z,95381.38
2019-03-12T18:56:13.214Z,95370.95
2019-03-12T18:58:39.494Z,95361.84
2019-03-12T19:01:05.721Z,95358.05
2019-03-12T19:03:31.973Z,95339.06
2019-03-12T19:05:58.506Z,95333.00
2019-03-12T19:08:25.287Z,95325.75
2019-03-12T19:10:52.698Z,95315.79
2019-03-12T19:13:19.254Z,95323.22
2019-03-12T19:15:45.483Z,95310.27
2019-03-12T19:18:12.003Z,95321.21
2019-03-12T19:20:38.613Z,95300.45
2019-03-12T19:23:05.432Z,95299.00
2019-03-12T19:25:38.567Z,95287.51
2019-03-12T19:28:05.584Z,95291.84
2019-03-12T19:30:32.004Z,95282.13
2019-03-12T19:33:11.011Z,95288.34
2019-03-12T19:35:37.531Z,95281.36
2019-03-12T19:38:04.263Z,95279.08
2019-03-12T19:40:34.448Z,95266.63
2019-03-12T19:43:01.286Z,95262.70
2019-03-12T19:45:28.107Z,95264.81
2019-03-12T19:47:54.333Z,95253.18
2019-03-12T19:50:20.874Z,95256.30
2019-03-12T19:52:49.340Z,95240.52
2019-03-12T19:55:25.312Z,95230.13
2019-03-12T19:57:51.771Z,95231.66
2019-03-12T20:00:20.014Z,95225.65
2019-03-12T20:02:46.400Z,95216.01
2019-03-12T20:05:13.100Z,95209.50
2019-03-12T20:07:39.449Z,95201.02
2019-03-12T20:10:18.523Z,95201.50
2019-03-12T20:13:05.020Z,95185.59
2019-03-12T20:16:10.065Z,95191.49
2019-03-12T20:18:56.531Z,95190.98
2019-03-12T20:21:42.972Z,95204.73
2019-03-12T20:24:33.106Z,95183.16
2019-03-12T20:27:36.554Z,95182.69
2019-03-12T20:30:28.609Z,95170.36
2019-03-12T20:33:15.042Z,95167.56
2019-03-12T20:36:18.182Z,95164.59
2019-03-12T20:39:13.916Z,95155.71
2019-03-12T20:42:05.343Z,95152.00
2019-03-12T20:44:52.560Z,95164.80
2019-03-12T20:47:56.757Z,95140.36
2019-03-12T20:50:41.555Z,95139.34
2019-03-12T20:53:35.737Z,95129.64
2019-03-12T20:56:29.464Z,95114.11
2019-03-12T20:59:28.582Z,95108.25
2019-03-12T21:02:01.870Z,95100.78
2019-03-12T21:04:32.128Z,95091.02
2019-03-12T21:07:08.172Z,95075.64
2019-03-12T21:09:57.710Z,95075.31
2019-03-12T21:12:40.530Z,95068.55
2019-03-12T21:15:39.521Z,95068.55
2019-03-12T21:18:25.865Z,95066.59
2019-03-12T21:21:29.485Z,95049.37
2019-03-12T21:24:02.166Z,95037.58
2019-03-12T21:26:53.523Z,95035.27
2019-03-12T21:29:27.269Z,95035.11
2019-03-12T21:31:53.676Z,95019.61
2019-03-12T21:34:19.863Z,95017.02
2019-03-12T21:36:46.342Z,95014.09
2019-03-12T21:39:12.932Z,95004.59
2019-03-12T21:41:39.246Z,95002.30
2019-03-12T21:44:05.566Z,94999.84
2019-03-12T21:46:31.841Z,95004.47
2019-03-12T21:48:58.127Z,95005.93
2019-03-12T21:51:24.545Z,95008.09
2019-03-12T21:53:50.657Z,94998.60
2019-03-12T21:56:17.938Z,94995.67
2019-03-12T21:58:44.159Z,94965.09
2019-03-12T22:01:10.491Z,94962.33
2019-03-12T22:03:36.602Z,94947.08
2019-03-12T22:06:02.938Z,94935.83
2019-03-12T22:08:29.157Z,94934.90
2019-03-12T22:10:55.386Z,94900.48
2019-03-12T22:13:21.509Z,94936.36
2019-03-12T22:15:47.820Z,94906.24
2019-03-12T22:18:13.953Z,94920.82
2019-03-12T22:20:40.278Z,94914.63
2019-03-12T22:23:23.675Z,94912.84
2019-03-12T22:25:51.562Z,94919.05
2019-03-12T22:28:17.854Z,94906.61
2019-03-12T22:30:44.341Z,94896.76
2019-03-12T22:33:12.123Z,94901.01
2019-03-12T22:35:38.241Z,94869.09
2019-03-12T22:38:04.485Z,94878.25
2019-03-12T22:40:30.616Z,94863.37
2019-03-12T22:42:56.940Z,94874.97
2019-03-12T22:45:23.129Z,94873.97
2019-03-12T22:47:49.354Z,94852.20
2019-03-12T22:50:15.705Z,94851.38
2019-03-12T22:52:42.054Z,94840.58
2019-03-12T22:55:09.927Z,94828.16
2019-03-12T22:57:36.174Z,94823.90
2019-03-12T23:00:21.091Z,94828.95
2019-03-12T23:03:05.900Z,94802.91
2019-03-12T23:05:50.563Z,94802.74
2019-03-12T23:08:35.409Z,94815.48
2019-03-12T23:11:03.574Z,94796.86
2019-03-12T23:13:30.339Z,94810.61
2019-03-12T23:15:56.744Z,94822.75
2019-03-12T23:18:23.973Z,94814.57
2019-03-12T23:20:50.279Z,94831.77
2019-03-12T23:23:16.610Z,94826.05
2019-03-12T23:25:42.708Z,94821.13
2019-03-12T23:28:09.023Z,94808.85
2019-03-12T23:30:35.154Z,94816.23
2019-03-12T23:33:01.472Z,94802.80
2019-03-12T23:35:27.794Z,94783.79
2019-03-12T23:37:53.943Z,94793.16
2019-03-12T23:40:20.260Z,94788.88
2019-03-12T23:42:46.510Z,94785.61
2019-03-12T23:45:14.737Z,94771.05
2019-03-12T23:47:40.934Z,94775.30
2019-03-12T23:50:15.093Z,94763.19
2019-03-12T23:52:41.676Z,94755.64
2019-03-12T23:55:12.541Z,94756.95
2019-03-12T23:57:40.058Z,94754.17
